Time;durP1;ratioP1;P1;durP2;ratioP2;P2;SDS_P1;SDS_P2;PMS_P1;PMS_P2;Temp;Humidity;BMP_temperature;BMP_pressure;BME280_temperature;BME280_humidity;BME280_pressure;Samples;Min_cycle;Max_cycle;Signal;HPM_P1;HPM_P2
2021/06/17 00:00:30;;;;;;;14.43;12.93;;;23.30;99.90;;;;;;5058940;28;20445;-72
2021/06/17 00:02:58;;;;;;;15.20;13.73;;;23.30;99.90;;;;;;5056865;28;20485;-71
2021/06/17 00:05:28;;;;;;;17.97;14.60;;;23.20;99.90;;;;;;5068268;28;20512;-72
2021/06/17 00:07:56;;;;;;;15.70;13.77;;;23.20;99.90;;;;;;5068971;28;20449;-71
2021/06/17 00:10:27;;;;;;;16.53;14.83;;;23.20;99.90;;;;;;5064367;28;20443;-71
2021/06/17 00:12:57;;;;;;;14.23;12.93;;;23.20;99.90;;;;;;5060039;28;20466;-71
2021/06/17 00:15:25;;;;;;;15.87;14.27;;;23.20;99.90;;;;;;5052342;28;20857;-72
2021/06/17 00:17:54;;;;;;;15.43;13.83;;;23.10;99.90;;;;;;5055067;28;20454;-73
2021/06/17 00:20:22;;;;;;;16.60;15.10;;;23.20;99.90;;;;;;5050810;28;20948;-72
2021/06/17 00:22:49;;;;;;;16.20;14.33;;;23.10;99.90;;;;;;5061664;28;20947;-73
2021/06/17 00:25:17;;;;;;;20.00;14.77;;;23.10;99.90;;;;;;5067841;28;20484;-71
2021/06/17 00:27:44;;;;;;;14.93;13.40;;;23.10;99.90;;;;;;5071012;28;20452;-71
2021/06/17 00:30:15;;;;;;;15.37;13.77;;;23.10;99.90;;;;;;5062238;28;20538;-71
2021/06/17 00:32:42;;;;;;;14.97;13.57;;;23.00;99.90;;;;;;5065288;28;20476;-71
2021/06/17 00:35:11;;;;;;;17.10;15.60;;;23.00;99.90;;;;;;5064948;28;20955;-71
2021/06/17 00:37:38;;;;;;;16.33;14.70;;;22.90;99.90;;;;;;5064331;28;20449;-69
2021/06/17 00:40:07;;;;;;;16.70;14.97;;;22.90;99.90;;;;;;5069174;28;20448;-71
2021/06/17 00:42:35;;;;;;;15.27;13.97;;;22.90;99.90;;;;;;5058494;28;20933;-70
2021/06/17 00:45:02;;;;;;;14.80;13.50;;;22.90;99.90;;;;;;5067174;28;20484;-71
2021/06/17 00:47:31;;;;;;;15.30;13.80;;;22.80;99.90;;;;;;5073912;28;20445;-69
2021/06/17 00:49:58;;;;;;;17.60;15.90;;;22.80;99.90;;;;;;5072329;28;20536;-72
2021/06/17 00:52:25;;;;;;;15.63;14.20;;;22.80;99.90;;;;;;5071506;28;20500;-73
2021/06/17 00:54:52;;;;;;;16.60;15.20;;;22.80;99.90;;;;;;5066869;28;20445;-71
2021/06/17 00:57:21;;;;;;;16.10;14.60;;;22.80;99.90;;;;;;5068785;28;20811;-71
2021/06/17 00:59:48;;;;;;;13.67;12.37;;;22.70;99.90;;;;;;5068810;28;20464;-71
2021/06/17 01:02:16;;;;;;;17.37;15.50;;;22.70;99.90;;;;;;5072305;28;20460;-71
2021/06/17 01:04:44;;;;;;;15.03;13.43;;;22.60;99.90;;;;;;5060961;28;21075;-70
2021/06/17 01:07:12;;;;;;;15.70;14.10;;;22.60;99.90;;;;;;5070016;28;20542;-71
2021/06/17 01:09:49;;;;;;;16.47;14.87;;;22.60;99.90;;;;;;5061557;28;20480;-71
2021/06/17 01:12:28;;;;;;;15.83;14.17;;;22.60;99.90;;;;;;5070558;28;20488;-72
2021/06/17 01:15:03;;;;;;;18.30;15.27;;;22.70;99.90;;;;;;5068690;28;20544;-71
2021/06/17 01:17:33;;;;;;;15.80;14.23;;;22.60;99.90;;;;;;5069736;28;20447;-70
2021/06/17 01:20:08;;;;;;;16.40;14.93;;;22.50;99.90;;;;;;5069714;28;20452;-70
2021/06/17 01:22:47;;;;;;;14.83;13.27;;;22.60;99.90;;;;;;5068405;28;20971;-71
2021/06/17 01:25:34;;;;;;;15.40;13.97;;;22.50;99.90;;;;;;5069266;28;20491;-71
2021/06/17 01:28:07;;;;;;;16.03;14.50;;;22.50;99.90;;;;;;5072477;28;20448;-70
2021/06/17 01:30:42;;;;;;;17.27;15.57;;;22.40;99.90;;;;;;5064777;28;20453;-71
2021/06/17 01:33:10;;;;;;;16.37;14.83;;;22.40;99.90;;;;;;5066499;28;20483;-70
2021/06/17 01:35:43;;;;;;;14.60;13.20;;;22.40;99.90;;;;;;5057166;28;20441;-69
2021/06/17 01:38:11;;;;;;;17.67;15.90;;;22.40;99.90;;;;;;5060427;28;20444;-70
2021/06/17 01:40:41;;;;;;;18.47;16.47;;;22.40;99.90;;;;;;5065226;28;20480;-71
2021/06/17 01:43:10;;;;;;;16.80;15.10;;;22.40;99.90;;;;;;5072008;28;20481;-70
2021/06/17 01:45:38;;;;;;;15.37;13.90;;;22.30;99.90;;;;;;5066199;28;20579;-71
2021/06/17 01:48:07;;;;;;;15.83;14.27;;;22.30;99.90;;;;;;5067753;28;20460;-73
2021/06/17 01:50:35;;;;;;;16.50;14.80;;;22.30;99.90;;;;;;5068039;28;20452;-70
2021/06/17 01:53:05;;;;;;;16.63;14.97;;;22.20;99.90;;;;;;5065527;28;20460;-72
2021/06/17 01:55:36;;;;;;;19.80;16.03;;;22.20;99.90;;;;;;5069901;28;20882;-70
2021/06/17 01:58:06;;;;;;;15.77;14.37;;;22.20;99.90;;;;;;5069496;28;20448;-70
2021/06/17 02:00:36;;;;;;;17.87;16.17;;;22.20;99.90;;;;;;5061267;28;20510;-70
2021/06/17 02:03:07;;;;;;;19.20;16.33;;;22.20;99.90;;;;;;5060500;28;20589;-71
2021/06/17 02:05:35;;;;;;;17.43;15.70;;;22.10;99.90;;;;;;5061402;28;20543;-70
2021/06/17 02:08:04;;;;;;;15.70;14.40;;;22.10;99.90;;;;;;5062538;28;20449;-70
2021/06/17 02:10:32;;;;;;;17.00;15.50;;;22.10;99.90;;;;;;5064789;28;20456;-71
2021/06/17 02:13:00;;;;;;;17.63;16.03;;;22.10;99.90;;;;;;5069554;28;20475;-71
2021/06/17 02:15:30;;;;;;;17.50;15.83;;;22.00;99.90;;;;;;5069233;28;20540;-71
2021/06/17 02:18:00;;;;;;;16.90;15.33;;;22.00;99.90;;;;;;5058899;28;20448;-71
2021/06/17 02:20:28;;;;;;;17.33;15.83;;;22.00;99.90;;;;;;5064855;28;20451;-71
2021/06/17 02:23:00;;;;;;;20.80;17.50;;;22.00;99.90;;;;;;5059641;28;20831;-70
2021/06/17 02:25:28;;;;;;;17.03;15.30;;;21.90;99.90;;;;;;5066670;28;20561;-70
2021/06/17 02:28:01;;;;;;;16.43;14.87;;;21.90;99.90;;;;;;5068970;28;20448;-72
2021/06/17 02:30:31;;;;;;;18.20;16.70;;;21.90;99.90;;;;;;5069378;28;20456;-71
2021/06/17 02:33:02;;;;;;;16.17;14.83;;;21.90;99.90;;;;;;5065470;28;20477;-71
2021/06/17 02:35:30;;;;;;;18.73;15.50;;;21.80;99.90;;;;;;5061380;28;20452;-72
2021/06/17 02:38:01;;;;;;;16.90;15.40;;;21.90;99.90;;;;;;5065544;28;20466;-72
2021/06/17 02:40:30;;;;;;;18.97;16.30;;;21.90;99.90;;;;;;5066752;28;20468;-71
2021/06/17 02:42:58;;;;;;;18.47;16.87;;;21.90;99.90;;;;;;5057738;28;20491;-71
2021/06/17 02:45:29;;;;;;;18.47;16.60;;;21.80;99.90;;;;;;5062082;28;20504;-71
2021/06/17 02:47:56;;;;;;;17.13;15.43;;;21.80;99.90;;;;;;5064782;28;20456;-71
2021/06/17 02:50:25;;;;;;;17.50;15.80;;;21.80;99.90;;;;;;5064088;28;20815;-71
2021/06/17 02:52:52;;;;;;;16.70;15.30;;;21.80;99.90;;;;;;5070468;28;20954;-71
2021/06/17 02:55:19;;;;;;;17.00;15.40;;;21.70;99.90;;;;;;5070557;28;20461;-71
2021/06/17 02:57:58;;;;;;;17.03;15.53;;;21.70;99.90;;;;;;5064877;28;20455;-71
2021/06/17 03:00:28;;;;;;;18.07;16.40;;;21.70;99.90;;;;;;5052011;28;20447;-69
2021/06/17 03:03:04;;;;;;;17.80;15.87;;;21.70;99.90;;;;;;5068583;28;20548;-71
2021/06/17 03:05:36;;;;;;;19.73;17.87;;;21.70;99.90;;;;;;5059914;28;20989;-71
2021/06/17 03:08:11;;;;;;;18.47;16.60;;;21.70;99.90;;;;;;5066406;28;20930;-71
2021/06/17 03:10:40;;;;;;;18.17;16.47;;;21.60;99.90;;;;;;5064166;28;20832;-71
2021/06/17 03:13:09;;;;;;;18.13;16.27;;;21.60;99.90;;;;;;5056980;28;20482;-70
2021/06/17 03:15:39;;;;;;;17.77;16.20;;;21.60;99.90;;;;;;5065528;28;20456;-69
2021/06/17 03:18:08;;;;;;;19.00;17.17;;;21.60;99.90;;;;;;5069652;28;20463;-69
2021/06/17 03:20:40;;;;;;;15.37;13.87;;;21.60;99.90;;;;;;5068048;28;20456;-69
2021/06/17 03:23:14;;;;;;;18.57;16.77;;;21.60;99.90;;;;;;5071141;28;20562;-69
2021/06/17 03:25:43;;;;;;;20.77;17.10;;;21.70;99.90;;;;;;5064270;28;20563;-71
2021/06/17 03:28:14;;;;;;;17.27;15.67;;;21.60;99.90;;;;;;5064535;28;20483;-70
2021/06/17 03:30:46;;;;;;;18.87;17.07;;;21.70;99.90;;;;;;5067015;28;20456;-70
2021/06/17 03:33:14;;;;;;;18.43;15.67;;;21.60;99.90;;;;;;5060694;28;20482;-71
2021/06/17 03:35:43;;;;;;;17.40;15.80;;;21.70;99.90;;;;;;5068793;28;20640;-72
2021/06/17 03:38:11;;;;;;;17.53;14.73;;;21.70;99.90;;;;;;5070647;28;20552;-72
2021/06/17 03:40:39;;;;;;;17.17;15.57;;;21.70;99.90;;;;;;5071338;28;20790;-70
2021/06/17 03:43:08;;;;;;;20.37;16.30;;;21.70;99.90;;;;;;5066588;28;20471;-71
2021/06/17 03:45:38;;;;;;;17.73;16.00;;;21.80;99.90;;;;;;5071254;28;20479;-70
2021/06/17 03:48:07;;;;;;;15.07;13.70;;;21.80;99.90;;;;;;5064363;28;20548;-73
2021/06/17 03:50:35;;;;;;;19.80;15.07;;;21.80;99.90;;;;;;5069913;28;20457;-69
2021/06/17 03:53:04;;;;;;;16.80;15.07;;;21.80;99.90;;;;;;5062187;28;20467;-70
2021/06/17 03:55:35;;;;;;;16.23;14.73;;;21.90;99.90;;;;;;5058385;28;20964;-71
2021/06/17 03:58:03;;;;;;;14.70;13.30;;;21.90;99.90;;;;;;5066431;28;20447;-70
2021/06/17 04:00:31;;;;;;;15.50;14.00;;;22.00;99.90;;;;;;5066142;28;20830;-70
2021/06/17 04:03:00;;;;;;;16.97;15.17;;;22.20;99.90;;;;;;5061527;28;20463;-70
2021/06/17 04:05:27;;;;;;;16.00;14.40;;;22.40;99.90;;;;;;5071412;28;20477;-70
2021/06/17 04:07:58;;;;;;;18.40;15.30;;;22.90;99.90;;;;;;5060529;28;20547;-71
2021/06/17 04:10:28;;;;;;;15.80;14.30;;;23.50;99.90;;;;;;5073289;28;20448;-72
2021/06/17 04:12:57;;;;;;;15.77;14.37;;;24.10;99.90;;;;;;5061903;28;20461;-72
2021/06/17 04:15:26;;;;;;;15.57;13.87;;;24.80;99.90;;;;;;5073056;28;20448;-71
2021/06/17 04:17:55;;;;;;;14.10;12.80;;;25.40;99.90;;;;;;5060804;28;20468;-71
2021/06/17 04:20:26;;;;;;;16.10;14.40;;;25.80;99.90;;;;;;5071234;28;20459;-70
2021/06/17 04:22:56;;;;;;;16.63;14.80;;;26.10;99.90;;;;;;5064113;28;20480;-70
2021/06/17 04:25:24;;;;;;;14.63;13.20;;;26.70;99.90;;;;;;5071662;28;20988;-71
2021/06/17 04:28:05;;;;;;;15.03;13.57;;;27.10;99.00;;;;;;5068968;28;20834;-72
2021/06/17 04:30:35;;;;;;;16.00;14.00;;;27.70;97.20;;;;;;5069792;28;20446;-71
2021/06/17 04:33:06;;;;;;;13.90;12.53;;;27.90;96.60;;;;;;5069176;28;20460;-72
2021/06/17 04:35:34;;;;;;;12.53;11.33;;;28.20;96.00;;;;;;5064259;28;20449;-72
2021/06/17 04:38:02;;;;;;;11.60;10.50;;;28.70;94.80;;;;;;5063692;28;20452;-72
2021/06/17 04:40:29;;;;;;;16.00;13.87;;;29.00;94.20;;;;;;5073935;28;20441;-72
2021/06/17 04:43:00;;;;;;;14.70;13.17;;;29.30;93.00;;;;;;5058383;28;20476;-72
2021/06/17 04:45:29;;;;;;;13.60;11.60;;;29.40;92.60;;;;;;5063465;28;20608;-70
2021/06/17 04:47:59;;;;;;;14.30;12.10;;;29.70;92.10;;;;;;5066889;28;20510;-70
2021/06/17 04:50:27;;;;;;;15.40;11.30;;;30.30;91.20;;;;;;5060961;28;20883;-70
2021/06/17 04:53:15;;;;;;;11.87;10.57;;;30.60;90.50;;;;;;5062398;28;20831;-70
2021/06/17 04:55:47;;;;;;;14.73;13.33;;;30.90;89.00;;;;;;5059308;28;20450;-72
2021/06/17 04:58:16;;;;;;;11.63;10.47;;;30.80;89.00;;;;;;5059004;28;20450;-75
2021/06/17 05:00:44;;;;;;;14.67;12.10;;;31.00;88.80;;;;;;5067083;28;20441;-72
2021/06/17 05:03:11;;;;;;;13.00;11.73;;;31.10;88.30;;;;;;5061944;28;20522;-71
2021/06/17 05:05:38;;;;;;;15.27;13.17;;;30.90;87.90;;;;;;5061501;28;20515;-71
2021/06/17 05:10:52;;;;;;;13.13;11.13;;;30.70;88.50;;;;;;5065289;28;20441;-71
2021/06/17 05:13:23;;;;;;;18.53;12.80;;;31.20;88.30;;;;;;5063127;28;20438;-70
2021/06/17 05:15:52;;;;;;;13.23;11.93;;;31.70;86.40;;;;;;5061923;28;20487;-70
2021/06/17 05:18:19;;;;;;;12.50;11.33;;;31.60;86.20;;;;;;5061892;28;20454;-70
2021/06/17 05:20:46;;;;;;;14.73;11.00;;;32.10;85.20;;;;;;5064879;28;20486;-71
2021/06/17 05:23:18;;;;;;;12.97;11.87;;;32.20;84.00;;;;;;5065745;28;20460;-69
2021/06/17 05:25:46;;;;;;;13.07;10.40;;;32.40;83.00;;;;;;5069413;28;20518;-69
2021/06/17 05:28:14;;;;;;;11.73;10.57;;;32.40;83.30;;;;;;5061632;28;20779;-70
2021/06/17 05:30:44;;;;;;;14.57;12.97;;;32.90;82.80;;;;;;5072246;28;20441;-71
2021/06/17 05:33:11;;;;;;;14.03;11.57;;;33.10;81.10;;;;;;5066236;28;20475;-69
2021/06/17 05:35:39;;;;;;;12.83;11.63;;;33.00;81.00;;;;;;5071453;28;20437;-71
2021/06/17 05:38:06;;;;;;;11.97;10.53;;;33.10;80.30;;;;;;5068456;28;20445;-71
2021/06/17 05:40:34;;;;;;;16.47;13.37;;;33.00;80.80;;;;;;5065171;28;20445;-70
2021/06/17 05:43:01;;;;;;;14.13;12.33;;;33.00;81.00;;;;;;5067057;28;20488;-72
2021/06/17 05:45:28;;;;;;;15.37;11.23;;;33.00;80.50;;;;;;5068309;28;20457;-71
2021/06/17 05:47:57;;;;;;;12.77;11.50;;;33.20;80.70;;;;;;5070515;28;20449;-72
2021/06/17 05:50:25;;;;;;;12.30;11.10;;;33.10;80.00;;;;;;5072583;28;20445;-71
2021/06/17 05:52:52;;;;;;;12.80;11.67;;;33.20;80.60;;;;;;5072011;28;20468;-70
2021/06/17 05:55:19;;;;;;;13.30;12.00;;;33.60;80.40;;;;;;5054770;28;20830;-70
2021/06/17 05:57:47;;;;;;;15.10;13.60;;;33.80;79.10;;;;;;5070378;28;20437;-70
2021/06/17 06:00:16;;;;;;;13.03;12.03;;;34.10;78.70;;;;;;5061262;28;20485;-70
2021/06/17 06:02:43;;;;;;;12.33;11.13;;;33.90;78.30;;;;;;5062301;28;20462;-71
2021/06/17 06:05:12;;;;;;;19.70;12.37;;;34.30;77.50;;;;;;5063849;28;20819;-72
2021/06/17 06:07:39;;;;;;;13.23;11.93;;;34.60;76.50;;;;;;5064250;28;20481;-70
2021/06/17 06:10:08;;;;;;;11.57;10.47;;;34.50;75.50;;;;;;5055368;28;20516;-70
2021/06/17 06:12:35;;;;;;;13.40;12.30;;;34.10;76.50;;;;;;5061990;28;20470;-71
2021/06/17 06:15:05;;;;;;;13.93;12.60;;;33.70;77.60;;;;;;5061801;28;20437;-72
2021/06/17 06:17:32;;;;;;;11.40;10.37;;;34.10;77.20;;;;;;5062838;28;20453;-73
2021/06/17 06:20:01;;;;;;;12.63;10.70;;;34.30;77.10;;;;;;5066180;28;20449;-71
2021/06/17 06:22:30;;;;;;;13.43;12.03;;;35.10;76.20;;;;;;5064686;28;20473;-72
2021/06/17 06:24:57;;;;;;;13.23;11.87;;;35.20;74.50;;;;;;5068403;28;20457;-72
2021/06/17 06:27:24;;;;;;;13.43;12.20;;;34.90;74.80;;;;;;5066996;28;20855;-71
2021/06/17 06:29:51;;;;;;;12.27;11.07;;;34.90;74.90;;;;;;5067418;28;20495;-72
2021/06/17 06:32:19;;;;;;;14.37;13.13;;;35.10;74.20;;;;;;5068662;28;20484;-71
2021/06/17 06:34:46;;;;;;;13.87;12.73;;;35.10;73.50;;;;;;5060074;28;20434;-72
2021/06/17 06:37:13;;;;;;;13.37;12.23;;;35.30;73.90;;;;;;5061380;28;20465;-73
2021/06/17 06:39:42;;;;;;;12.17;11.00;;;35.10;73.90;;;;;;5064922;28;20475;-74
2021/06/17 06:42:09;;;;;;;17.13;13.77;;;35.60;74.00;;;;;;5053631;28;20470;-74
2021/06/17 06:44:36;;;;;;;13.00;11.80;;;35.80;72.40;;;;;;5062369;28;21281;-74
2021/06/17 06:47:04;;;;;;;13.83;12.17;;;36.20;72.00;;;;;;5057732;28;20484;-71
2021/06/17 06:49:31;;;;;;;13.30;11.93;;;36.30;71.50;;;;;;5065612;28;20450;-72
2021/06/17 06:51:58;;;;;;;11.70;10.13;;;36.50;70.70;;;;;;5062249;28;20553;-75
2021/06/17 06:54:26;;;;;;;16.20;12.50;;;36.80;70.10;;;;;;5061614;28;20555;-74
2021/06/17 06:56:55;;;;;;;13.27;12.07;;;37.00;69.40;;;;;;5060411;28;20450;-75
2021/06/17 06:59:22;;;;;;;13.17;12.07;;;36.80;69.00;;;;;;5069522;28;20457;-72
2021/06/17 07:01:51;;;;;;;12.43;10.87;;;37.00;69.10;;;;;;5071192;28;20465;-72
2021/06/17 07:04:18;;;;;;;12.63;11.33;;;37.10;69.20;;;;;;5058221;28;20990;-74
2021/06/17 07:06:47;;;;;;;14.60;12.87;;;37.40;68.10;;;;;;5071794;28;20493;-73
2021/06/17 07:09:15;;;;;;;13.37;12.07;;;36.70;68.10;;;;;;5065624;28;20505;-72
2021/06/17 07:11:42;;;;;;;12.97;11.90;;;37.10;68.50;;;;;;5070527;28;20469;-70
2021/06/17 07:14:10;;;;;;;17.60;13.73;;;37.30;67.20;;;;;;5064490;28;20813;-72
2021/06/17 07:16:46;;;;;;;12.70;11.40;;;37.30;67.70;;;;;;5069175;28;20449;-71
2021/06/17 07:19:13;;;;;;;13.43;12.23;;;37.70;67.00;;;;;;5069207;28;20448;-69
2021/06/17 07:21:41;;;;;;;11.90;10.70;;;37.70;66.40;;;;;;5070452;28;20888;-73
2021/06/17 07:24:08;;;;;;;16.83;12.10;;;37.70;66.10;;;;;;5065283;28;20441;-71
2021/06/17 07:26:35;;;;;;;13.20;11.47;;;37.90;66.10;;;;;;5057122;28;20482;-73
2021/06/17 07:29:03;;;;;;;11.67;10.57;;;38.00;65.50;;;;;;5070654;28;20447;-72
2021/06/17 07:31:31;;;;;;;12.30;11.17;;;38.20;65.00;;;;;;5065424;28;20461;-74
2021/06/17 07:33:59;;;;;;;11.37;10.30;;;38.40;65.30;;;;;;5071236;28;20536;-75
2021/06/17 07:36:26;;;;;;;11.50;10.57;;;38.40;64.50;;;;;;5060556;28;20446;-72
2021/06/17 07:38:53;;;;;;;12.60;11.50;;;38.80;64.40;;;;;;5069482;28;20445;-74
2021/06/17 07:41:21;;;;;;;13.30;12.00;;;38.90;63.80;;;;;;5062158;28;20473;-72
2021/06/17 07:43:48;;;;;;;12.30;11.30;;;38.80;63.50;;;;;;5068079;28;20453;-74
2021/06/17 07:46:15;;;;;;;11.07;9.87;;;38.80;63.50;;;;;;5066725;28;20773;-73
2021/06/17 07:48:45;;;;;;;11.60;10.40;;;38.90;63.10;;;;;;5065745;28;20459;-73
2021/06/17 07:51:13;;;;;;;11.50;10.60;;;39.20;62.40;;;;;;5067516;28;20475;-72
2021/06/17 07:53:40;;;;;;;11.23;10.23;;;39.30;62.70;;;;;;5071276;28;20547;-73
2021/06/17 07:56:07;;;;;;;11.63;10.47;;;39.30;61.90;;;;;;5075091;28;20448;-75
2021/06/17 07:58:35;;;;;;;12.87;10.17;;;39.70;61.40;;;;;;5068856;28;20536;-76
2021/06/17 08:01:04;;;;;;;12.53;11.33;;;39.50;61.00;;;;;;5071036;28;20880;-70
2021/06/17 08:03:32;;;;;;;14.53;11.93;;;39.50;61.20;;;;;;5071067;28;20500;-72
2021/06/17 08:06:00;;;;;;;11.63;10.73;;;39.30;60.60;;;;;;5069771;28;20449;-72
2021/06/17 08:08:28;;;;;;;11.97;10.97;;;39.60;61.00;;;;;;5066302;28;20507;-72
2021/06/17 08:10:57;;;;;;;12.03;11.03;;;40.00;60.20;;;;;;5067795;28;20442;-73
2021/06/17 08:13:24;;;;;;;12.10;9.37;;;39.70;60.20;;;;;;5073876;28;20451;-71
2021/06/17 08:15:52;;;;;;;11.30;10.30;;;39.80;59.80;;;;;;5067219;28;20461;-73
2021/06/17 08:18:19;;;;;;;11.80;10.07;;;40.00;60.00;;;;;;5070646;28;20540;-73
2021/06/17 08:20:46;;;;;;;10.93;9.80;;;40.50;59.00;;;;;;5074074;28;20502;-73
2021/06/17 08:23:19;;;;;;;10.93;9.93;;;40.50;58.50;;;;;;5064398;28;20457;-70
2021/06/17 08:25:46;;;;;;;10.07;9.17;;;40.10;58.60;;;;;;5060756;28;20453;-73
2021/06/17 08:28:13;;;;;;;13.20;9.73;;;40.40;57.90;;;;;;5071900;28;20580;-74
2021/06/17 08:30:40;;;;;;;9.87;8.90;;;40.10;58.70;;;;;;5063520;28;20461;-73
2021/06/17 08:33:08;;;;;;;8.63;7.80;;;40.50;58.00;;;;;;5059044;28;20480;-72
2021/06/17 08:35:36;;;;;;;9.43;8.60;;;40.40;58.10;;;;;;5067311;28;20995;-73
2021/06/17 08:38:03;;;;;;;9.83;8.83;;;40.80;57.70;;;;;;5065193;28;20452;-71
2021/06/17 08:40:34;;;;;;;10.97;10.03;;;40.90;57.10;;;;;;5062697;28;20943;-72
2021/06/17 08:43:02;;;;;;;11.30;10.40;;;40.70;56.90;;;;;;5058154;28;20830;-73
2021/06/17 08:45:29;;;;;;;10.60;9.57;;;41.10;56.80;;;;;;5072663;28;20441;-71
2021/06/17 08:47:57;;;;;;;10.20;9.13;;;41.40;56.20;;;;;;5066532;28;20578;-70
2021/06/17 08:50:24;;;;;;;10.03;9.23;;;41.30;56.10;;;;;;5063837;28;20460;-73
2021/06/17 08:52:52;;;;;;;10.33;9.43;;;40.40;56.90;;;;;;5074725;28;20465;-72
2021/06/17 08:55:21;;;;;;;13.13;8.67;;;40.40;56.90;;;;;;5073955;28;20456;-71
2021/06/17 08:57:51;;;;;;;10.30;9.40;;;40.60;57.00;;;;;;5066130;28;20441;-74
2021/06/17 09:00:35;;;;;;;9.13;8.23;;;40.60;56.80;;;;;;5070058;28;20478;-72
2021/06/17 09:03:05;;;;;;;8.50;7.90;;;41.00;55.90;;;;;;5062075;28;20992;-73
2021/06/17 09:05:34;;;;;;;15.07;10.87;;;40.50;56.10;;;;;;5067487;28;20541;-72
2021/06/17 09:08:02;;;;;;;9.53;8.63;;;40.20;56.40;;;;;;5073352;28;20476;-75
2021/06/17 09:10:30;;;;;;;10.67;8.60;;;39.70;57.70;;;;;;5061419;28;20526;-73
2021/06/17 09:13:01;;;;;;;11.83;10.63;;;40.00;57.10;;;;;;5071903;28;20473;-75
2021/06/17 09:15:38;;;;;;;10.43;9.63;;;39.70;58.10;;;;;;5064007;28;20455;-74
2021/06/17 09:18:20;;;;;;;10.43;9.43;;;39.80;57.90;;;;;;5066637;28;20433;-71
2021/06/17 09:20:52;;;;;;;9.40;8.70;;;40.10;58.00;;;;;;5066605;28;20509;-72
2021/06/17 09:23:28;;;;;;;12.57;9.60;;;39.80;57.40;;;;;;5069656;28;20459;-72
2021/06/17 09:25:58;;;;;;;9.67;8.87;;;39.70;57.70;;;;;;5069994;28;20440;-73
2021/06/17 09:28:27;;;;;;;10.73;9.83;;;39.30;57.80;;;;;;5072678;28;20521;-75
2021/06/17 09:30:55;;;;;;;13.10;8.80;;;39.10;58.40;;;;;;5060451;28;20457;-72
2021/06/17 09:33:26;;;;;;;11.27;10.27;;;38.40;59.00;;;;;;5064836;28;20437;-74
2021/06/17 09:35:57;;;;;;;9.83;8.93;;;38.10;59.80;;;;;;5059718;28;20909;-73
2021/06/17 09:38:26;;;;;;;9.80;9.00;;;38.10;60.50;;;;;;5068104;28;20458;-73
2021/06/17 09:40:53;;;;;;;9.50;8.63;;;38.30;60.50;;;;;;5067752;28;20445;-72
2021/06/17 09:43:28;;;;;;;11.33;10.30;;;38.40;59.40;;;;;;5061754;28;20441;-72
2021/06/17 09:46:01;;;;;;;12.20;11.00;;;38.30;59.90;;;;;;5066350;28;20879;-73
2021/06/17 09:48:44;;;;;;;9.67;8.67;;;38.50;60.10;;;;;;5072240;28;21010;-73
2021/06/17 09:51:29;;;;;;;10.17;9.33;;;38.50;59.80;;;;;;5069705;28;20463;-74
2021/06/17 09:54:09;;;;;;;11.57;10.57;;;38.80;59.80;;;;;;5072320;28;20941;-73
2021/06/17 09:56:38;;;;;;;11.83;8.63;;;39.00;59.20;;;;;;5073429;28;20467;-71
2021/06/17 09:59:10;;;;;;;9.17;8.40;;;39.30;59.40;;;;;;5064749;28;20963;-71
2021/06/17 10:01:42;;;;;;;10.07;9.10;;;39.20;58.90;;;;;;5060878;28;20589;-73
2021/06/17 10:04:10;;;;;;;9.60;8.90;;;39.20;58.10;;;;;;5065421;28;20537;-72
2021/06/17 10:06:40;;;;;;;11.23;10.20;;;39.10;58.40;;;;;;5063506;28;20806;-73
2021/06/17 10:09:09;;;;;;;10.50;9.50;;;38.40;59.00;;;;;;5067885;28;20546;-72
2021/06/17 10:11:38;;;;;;;10.70;8.70;;;38.20;59.30;;;;;;5062453;28;20480;-71
2021/06/17 10:14:06;;;;;;;8.80;8.00;;;38.20;58.80;;;;;;5062123;28;21196;-73
2021/06/17 10:16:38;;;;;;;9.20;8.30;;;38.10;59.10;;;;;;5061897;28;20470;-74
2021/06/17 10:19:05;;;;;;;9.07;8.27;;;38.20;59.00;;;;;;5064338;28;20506;-72
2021/06/17 10:21:33;;;;;;;9.80;8.80;;;38.40;59.30;;;;;;5071484;28;20476;-74
2021/06/17 10:24:01;;;;;;;11.47;7.80;;;38.60;59.00;;;;;;5060276;28;20461;-72
2021/06/17 10:26:31;;;;;;;10.30;8.30;;;38.50;58.80;;;;;;5068644;28;20538;-73
2021/06/17 10:28:59;;;;;;;8.53;7.87;;;38.30;59.30;;;;;;5067209;28;20609;-73
2021/06/17 10:31:50;;;;;;;8.57;7.77;;;38.60;58.70;;;;;;5062343;28;20468;-73
2021/06/17 10:34:41;;;;;;;9.87;8.93;;;38.40;58.90;;;;;;5066873;28;20467;-74
2021/06/17 10:37:31;;;;;;;9.97;8.97;;;38.10;59.40;;;;;;5061823;28;20635;-74
2021/06/17 10:40:04;;;;;;;9.10;8.30;;;37.60;60.60;;;;;;5058920;28;20454;-72
2021/06/17 10:42:40;;;;;;;9.97;8.97;;;36.50;61.60;;;;;;5060087;28;20468;-72
2021/06/17 10:45:11;;;;;;;8.90;7.83;;;35.90;62.40;;;;;;5066220;28;21102;-71
2021/06/17 10:48:11;;;;;;;10.37;8.90;;;35.30;63.70;;;;;;5067808;28;20848;-73
2021/06/17 10:51:09;;;;;;;11.30;7.20;;;35.10;63.70;;;;;;5068203;28;20456;-74
2021/06/17 10:53:49;;;;;;;10.60;7.50;;;35.00;63.80;;;;;;5069279;28;20449;-76
2021/06/17 10:56:19;;;;;;;8.50;7.10;;;34.70;64.40;;;;;;5064740;28;20441;-73
2021/06/17 10:59:01;;;;;;;9.13;7.60;;;34.50;65.50;;;;;;5066001;28;20475;-74
2021/06/17 11:01:31;;;;;;;8.27;7.53;;;34.60;66.60;;;;;;5064836;28;20465;-74
2021/06/17 11:04:07;;;;;;;7.63;6.93;;;34.50;66.50;;;;;;5063726;28;20456;-74
2021/06/17 11:07:18;;;;;;;9.53;8.17;;;34.60;66.50;;;;;;5071006;28;20519;-74
2021/06/17 11:09:56;;;;;;;10.73;6.43;;;34.70;66.20;;;;;;5066269;28;20445;-73
2021/06/17 11:13:00;;;;;;;13.00;9.40;;;34.60;63.80;;;;;;5056945;28;20798;-74
2021/06/17 11:15:51;;;;;;;6.47;5.80;;;34.60;62.80;;;;;;5066758;28;20944;-73
2021/06/17 11:19:00;;;;;;;10.30;6.77;;;34.30;62.20;;;;;;5057418;28;20454;-75
2021/06/17 11:21:46;;;;;;;6.80;6.20;;;34.30;62.00;;;;;;5058599;28;20822;-73
2021/06/17 11:24:30;;;;;;;7.27;5.80;;;34.40;62.60;;;;;;5061376;28;20437;-71
2021/06/17 11:26:58;;;;;;;5.53;4.90;;;34.60;63.20;;;;;;5068548;28;20524;-73
2021/06/17 11:29:56;;;;;;;11.90;6.80;;;34.50;62.00;;;;;;5068738;28;20559;-73
2021/06/17 11:32:35;;;;;;;6.50;5.90;;;34.40;62.10;;;;;;5064209;28;20488;-74
2021/06/17 11:35:02;;;;;;;13.30;5.13;;;34.70;61.30;;;;;;5067907;28;20869;-73
2021/06/17 11:37:33;;;;;;;6.13;5.50;;;34.90;59.80;;;;;;5069349;28;20438;-75
2021/06/17 11:40:01;;;;;;;8.57;5.40;;;34.80;59.40;;;;;;5065314;28;21000;-73
2021/06/17 11:42:28;;;;;;;7.33;5.83;;;34.90;60.50;;;;;;5063946;28;20526;-73
2021/06/17 11:45:00;;;;;;;5.87;5.23;;;34.80;58.80;;;;;;5060535;28;20442;-75
2021/06/17 11:47:27;;;;;;;6.63;5.80;;;34.70;59.00;;;;;;5067376;28;20453;-74
2021/06/17 11:49:54;;;;;;;15.73;6.70;;;34.70;59.50;;;;;;5062311;28;20553;-74
2021/06/17 11:52:22;;;;;;;5.50;5.00;;;34.60;60.00;;;;;;5068975;28;20542;-73
2021/06/17 11:54:52;;;;;;;6.27;5.67;;;34.50;60.70;;;;;;5071659;28;20495;-74
2021/06/17 11:57:26;;;;;;;8.83;5.50;;;34.60;60.60;;;;;;5068745;28;20541;-76
2021/06/17 11:59:53;;;;;;;7.30;6.00;;;34.60;59.70;;;;;;5062904;28;20525;-73
2021/06/17 12:02:25;;;;;;;4.70;4.30;;;34.40;58.50;;;;;;5062243;28;20527;-74
2021/06/17 12:04:59;;;;;;;6.33;5.13;;;34.40;59.50;;;;;;5061273;28;20452;-72
2021/06/17 12:07:29;;;;;;;7.40;4.77;;;34.40;59.50;;;;;;5050111;28;20454;-76
2021/06/17 12:10:07;;;;;;;8.50;4.47;;;34.40;59.20;;;;;;5059310;28;20463;-75
2021/06/17 12:12:35;;;;;;;6.40;5.60;;;34.30;58.70;;;;;;5070051;28;20471;-74
2021/06/17 12:15:05;;;;;;;5.27;4.77;;;34.40;59.30;;;;;;5067520;28;20445;-73
2021/06/17 12:17:35;;;;;;;5.27;4.60;;;34.60;59.40;;;;;;5055996;28;20462;-74
2021/06/17 12:20:10;;;;;;;5.80;4.97;;;34.50;58.90;;;;;;5066372;28;20445;-73
2021/06/17 12:22:37;;;;;;;8.90;5.07;;;34.50;58.90;;;;;;5064705;28;20470;-71
2021/06/17 12:25:08;;;;;;;5.23;4.83;;;34.60;58.90;;;;;;5061636;28;20449;-73
2021/06/17 12:27:36;;;;;;;6.17;5.57;;;34.60;58.60;;;;;;5069553;28;20799;-72
2021/06/17 12:30:33;;;;;;;6.83;5.97;;;34.60;58.60;;;;;;5067479;28;20456;-74
2021/06/17 12:33:12;;;;;;;6.33;4.70;;;34.50;59.50;;;;;;5047262;28;20481;-73
2021/06/17 12:35:44;;;;;;;6.93;5.03;;;34.40;59.10;;;;;;5061073;28;20441;-73
2021/06/17 12:38:16;;;;;;;6.03;5.43;;;34.30;59.90;;;;;;5064793;28;20463;-75
2021/06/17 12:40:45;;;;;;;6.73;4.70;;;34.50;59.50;;;;;;5075003;28;20445;-71
2021/06/17 12:43:15;;;;;;;7.40;5.37;;;34.40;59.10;;;;;;5061460;28;20473;-72
2021/06/17 12:45:45;;;;;;;5.37;4.87;;;34.40;58.50;;;;;;5068596;28;20453;-73
2021/06/17 12:48:44;;;;;;;5.23;4.83;;;34.20;58.20;;;;;;5059558;28;20482;-71
2021/06/17 12:54:01;;;;;;;6.40;4.83;;;34.20;57.60;;;;;;5070148;28;21009;-72
2021/06/17 12:56:30;;;;;;;6.57;4.97;;;34.30;57.60;;;;;;5062984;28;20481;-73